< < Back
Terminal Aerodrome Forecast


Current Version              Previous Versions:   1  2  3  4  5  6  7  8  9  

Terminal Aerodrome Forecast

089
FTUS42 KFFC 282320
TAFCSG
TAF
KCSG 282320Z 2900/2924 00000KT P6SM SKC
     FM291600 21006KT P6SM SCT250=

Latest METAR

534
SAUS70 KWBC 290800
MTRCSG
METAR KCSG 290751Z AUTO 00000KT 10SM CLR 00/M03 A3028 RMK AO2 SLP255
T00001028


USA.gov is the U.S. government's official web portal to all federal, state and local government web resources and services.